sensor_id;sensor_type;location;lat;lon;timestamp;P1;durP1;ratioP1;P2;durP2;ratioP2
18520;SDS011;9390;51.244;6.982;2022-12-07T00:02:18;89.22;;;35.42;;
18520;SDS011;9390;51.244;6.982;2022-12-07T00:04:49;83.40;;;34.40;;
18520;SDS011;9390;51.244;6.982;2022-12-07T00:07:21;93.45;;;35.35;;
18520;SDS011;9390;51.244;6.982;2022-12-07T00:09:53;79.65;;;33.17;;
18520;SDS011;9390;51.244;6.982;2022-12-07T00:12:25;88.60;;;35.38;;
18520;SDS011;9390;51.244;6.982;2022-12-07T00:14:56;91.05;;;36.50;;
18520;SDS011;9390;51.244;6.982;2022-12-07T00:17:27;90.07;;;35.42;;
18520;SDS011;9390;51.244;6.982;2022-12-07T00:19:59;92.07;;;36.28;;
18520;SDS011;9390;51.244;6.982;2022-12-07T00:22:30;91.13;;;36.22;;
18520;SDS011;9390;51.244;6.982;2022-12-07T00:25:03;91.18;;;34.38;;
18520;SDS011;9390;51.244;6.982;2022-12-07T00:27:35;85.32;;;34.38;;
18520;SDS011;9390;51.244;6.982;2022-12-07T00:30:07;94.70;;;36.65;;
18520;SDS011;9390;51.244;6.982;2022-12-07T00:32:39;93.77;;;35.07;;
18520;SDS011;9390;51.244;6.982;2022-12-07T00:35:10;94.63;;;35.10;;
18520;SDS011;9390;51.244;6.982;2022-12-07T00:37:41;87.30;;;35.63;;
18520;SDS011;9390;51.244;6.982;2022-12-07T00:40:14;100.72;;;35.33;;
18520;SDS011;9390;51.244;6.982;2022-12-07T00:42:45;88.05;;;34.92;;
18520;SDS011;9390;51.244;6.982;2022-12-07T00:45:17;87.13;;;36.00;;
18520;SDS011;9390;51.244;6.982;2022-12-07T00:47:48;93.15;;;36.92;;
18520;SDS011;9390;51.244;6.982;2022-12-07T00:50:19;105.10;;;38.75;;
18520;SDS011;9390;51.244;6.982;2022-12-07T00:52:51;91.15;;;35.63;;
18520;SDS011;9390;51.244;6.982;2022-12-07T00:55:23;97.20;;;36.47;;
18520;SDS011;9390;51.244;6.982;2022-12-07T00:57:55;93.40;;;37.30;;
18520;SDS011;9390;51.244;6.982;2022-12-07T01:00:26;102.13;;;37.88;;
18520;SDS011;9390;51.244;6.982;2022-12-07T01:02:58;94.18;;;35.78;;
18520;SDS011;9390;51.244;6.982;2022-12-07T01:05:29;96.55;;;38.17;;
18520;SDS011;9390;51.244;6.982;2022-12-07T01:08:01;103.68;;;38.63;;
18520;SDS011;9390;51.244;6.982;2022-12-07T01:10:33;100.03;;;38.17;;
18520;SDS011;9390;51.244;6.982;2022-12-07T01:13:05;94.30;;;36.58;;
18520;SDS011;9390;51.244;6.982;2022-12-07T01:15:38;92.97;;;37.83;;
18520;SDS011;9390;51.244;6.982;2022-12-07T01:18:10;94.20;;;36.80;;
18520;SDS011;9390;51.244;6.982;2022-12-07T01:20:42;98.25;;;37.88;;
18520;SDS011;9390;51.244;6.982;2022-12-07T01:23:14;102.27;;;38.17;;
18520;SDS011;9390;51.244;6.982;2022-12-07T01:25:47;112.85;;;39.60;;
18520;SDS011;9390;51.244;6.982;2022-12-07T01:28:25;104.53;;;38.78;;
18520;SDS011;9390;51.244;6.982;2022-12-07T01:30:57;99.57;;;38.95;;
18520;SDS011;9390;51.244;6.982;2022-12-07T01:33:30;99.85;;;38.67;;
18520;SDS011;9390;51.244;6.982;2022-12-07T01:36:02;99.00;;;39.25;;
18520;SDS011;9390;51.244;6.982;2022-12-07T01:38:34;90.22;;;37.53;;
18520;SDS011;9390;51.244;6.982;2022-12-07T01:41:07;117.35;;;40.53;;
18520;SDS011;9390;51.244;6.982;2022-12-07T01:46:33;103.75;;;38.25;;
18520;SDS011;9390;51.244;6.982;2022-12-07T01:49:04;93.03;;;38.35;;
18520;SDS011;9390;51.244;6.982;2022-12-07T01:51:37;101.88;;;40.55;;
18520;SDS011;9390;51.244;6.982;2022-12-07T01:54:09;90.75;;;36.75;;
18520;SDS011;9390;51.244;6.982;2022-12-07T01:59:21;91.07;;;36.88;;
18520;SDS011;9390;51.244;6.982;2022-12-07T02:01:54;96.35;;;37.25;;
18520;SDS011;9390;51.244;6.982;2022-12-07T02:04:27;89.38;;;37.50;;
18520;SDS011;9390;51.244;6.982;2022-12-07T02:06:58;110.85;;;40.15;;
18520;SDS011;9390;51.244;6.982;2022-12-07T02:09:30;96.00;;;38.40;;
18520;SDS011;9390;51.244;6.982;2022-12-07T02:12:03;105.07;;;40.20;;
18520;SDS011;9390;51.244;6.982;2022-12-07T02:14:35;97.18;;;38.03;;
18520;SDS011;9390;51.244;6.982;2022-12-07T02:17:08;96.82;;;38.60;;
18520;SDS011;9390;51.244;6.982;2022-12-07T02:19:50;103.88;;;39.45;;
18520;SDS011;9390;51.244;6.982;2022-12-07T02:26:24;102.78;;;39.10;;
18520;SDS011;9390;51.244;6.982;2022-12-07T02:29:22;97.55;;;37.78;;
18520;SDS011;9390;51.244;6.982;2022-12-07T02:32:00;97.35;;;38.97;;
18520;SDS011;9390;51.244;6.982;2022-12-07T02:34:36;114.38;;;38.42;;
18520;SDS011;9390;51.244;6.982;2022-12-07T02:37:13;113.32;;;40.25;;
18520;SDS011;9390;51.244;6.982;2022-12-07T02:39:51;108.05;;;40.17;;
18520;SDS011;9390;51.244;6.982;2022-12-07T02:42:26;123.53;;;40.35;;
18520;SDS011;9390;51.244;6.982;2022-12-07T02:45:03;116.63;;;39.85;;
18520;SDS011;9390;51.244;6.982;2022-12-07T02:47:36;96.75;;;36.17;;
18520;SDS011;9390;51.244;6.982;2022-12-07T02:50:08;104.10;;;38.40;;
18520;SDS011;9390;51.244;6.982;2022-12-07T02:52:40;102.55;;;37.05;;
18520;SDS011;9390;51.244;6.982;2022-12-07T02:55:11;95.30;;;34.92;;
18520;SDS011;9390;51.244;6.982;2022-12-07T02:57:51;90.72;;;36.08;;
18520;SDS011;9390;51.244;6.982;2022-12-07T03:00:29;90.05;;;35.33;;
18520;SDS011;9390;51.244;6.982;2022-12-07T03:03:03;109.97;;;37.67;;
18520;SDS011;9390;51.244;6.982;2022-12-07T03:08:32;103.22;;;37.22;;
18520;SDS011;9390;51.244;6.982;2022-12-07T03:11:12;111.32;;;37.03;;
18520;SDS011;9390;51.244;6.982;2022-12-07T03:13:45;107.18;;;40.00;;
18520;SDS011;9390;51.244;6.982;2022-12-07T03:16:23;98.38;;;37.28;;
18520;SDS011;9390;51.244;6.982;2022-12-07T03:18:58;104.30;;;39.78;;
18520;SDS011;9390;51.244;6.982;2022-12-07T03:21:31;93.35;;;36.33;;
18520;SDS011;9390;51.244;6.982;2022-12-07T03:24:06;114.55;;;40.20;;
18520;SDS011;9390;51.244;6.982;2022-12-07T03:26:41;103.38;;;38.20;;
18520;SDS011;9390;51.244;6.982;2022-12-07T03:29:17;110.40;;;39.30;;
18520;SDS011;9390;51.244;6.982;2022-12-07T03:31:53;105.03;;;40.13;;
18520;SDS011;9390;51.244;6.982;2022-12-07T03:34:27;102.25;;;37.47;;
18520;SDS011;9390;51.244;6.982;2022-12-07T03:37:02;119.53;;;39.78;;
18520;SDS011;9390;51.244;6.982;2022-12-07T03:39:36;112.50;;;39.60;;
18520;SDS011;9390;51.244;6.982;2022-12-07T03:42:10;118.47;;;42.10;;
18520;SDS011;9390;51.244;6.982;2022-12-07T03:44:42;112.22;;;39.90;;
18520;SDS011;9390;51.244;6.982;2022-12-07T03:47:15;115.88;;;40.90;;
18520;SDS011;9390;51.244;6.982;2022-12-07T03:49:53;118.13;;;40.28;;
18520;SDS011;9390;51.244;6.982;2022-12-07T03:52:27;113.57;;;40.15;;
18520;SDS011;9390;51.244;6.982;2022-12-07T03:55:04;118.93;;;40.67;;
18520;SDS011;9390;51.244;6.982;2022-12-07T03:57:37;110.18;;;39.40;;
18520;SDS011;9390;51.244;6.982;2022-12-07T04:00:11;115.03;;;39.20;;
18520;SDS011;9390;51.244;6.982;2022-12-07T04:02:44;114.00;;;39.45;;
18520;SDS011;9390;51.244;6.982;2022-12-07T04:05:17;119.50;;;39.80;;
18520;SDS011;9390;51.244;6.982;2022-12-07T04:07:48;128.18;;;41.63;;
18520;SDS011;9390;51.244;6.982;2022-12-07T04:10:20;109.82;;;40.80;;
18520;SDS011;9390;51.244;6.982;2022-12-07T04:12:51;119.15;;;41.25;;
18520;SDS011;9390;51.244;6.982;2022-12-07T04:15:22;114.07;;;37.03;;
18520;SDS011;9390;51.244;6.982;2022-12-07T04:17:55;87.47;;;35.25;;
18520;SDS011;9390;51.244;6.982;2022-12-07T04:20:26;96.70;;;34.22;;
18520;SDS011;9390;51.244;6.982;2022-12-07T04:22:58;83.80;;;32.85;;
18520;SDS011;9390;51.244;6.982;2022-12-07T04:25:29;83.53;;;32.53;;
18520;SDS011;9390;51.244;6.982;2022-12-07T04:28:00;92.28;;;33.80;;
18520;SDS011;9390;51.244;6.982;2022-12-07T04:30:32;101.85;;;36.95;;
18520;SDS011;9390;51.244;6.982;2022-12-07T04:33:04;95.50;;;36.88;;
18520;SDS011;9390;51.244;6.982;2022-12-07T04:35:36;97.25;;;35.25;;
18520;SDS011;9390;51.244;6.982;2022-12-07T04:38:07;101.85;;;37.00;;
18520;SDS011;9390;51.244;6.982;2022-12-07T04:40:38;102.15;;;36.70;;
18520;SDS011;9390;51.244;6.982;2022-12-07T04:43:10;97.85;;;34.97;;
18520;SDS011;9390;51.244;6.982;2022-12-07T04:45:45;97.22;;;36.15;;
18520;SDS011;9390;51.244;6.982;2022-12-07T04:48:18;94.35;;;34.45;;
18520;SDS011;9390;51.244;6.982;2022-12-07T04:50:49;83.97;;;33.63;;
18520;SDS011;9390;51.244;6.982;2022-12-07T04:53:21;93.55;;;31.42;;
18520;SDS011;9390;51.244;6.982;2022-12-07T04:55:52;74.85;;;27.98;;
18520;SDS011;9390;51.244;6.982;2022-12-07T04:58:24;68.07;;;28.75;;
18520;SDS011;9390;51.244;6.982;2022-12-07T05:00:55;69.57;;;28.60;;
18520;SDS011;9390;51.244;6.982;2022-12-07T05:03:28;85.18;;;30.17;;
18520;SDS011;9390;51.244;6.982;2022-12-07T05:05:59;79.82;;;30.80;;
18520;SDS011;9390;51.244;6.982;2022-12-07T05:08:31;82.32;;;31.35;;
18520;SDS011;9390;51.244;6.982;2022-12-07T05:11:04;88.93;;;32.35;;
18520;SDS011;9390;51.244;6.982;2022-12-07T05:13:36;78.22;;;31.95;;
18520;SDS011;9390;51.244;6.982;2022-12-07T05:16:07;94.82;;;33.05;;
18520;SDS011;9390;51.244;6.982;2022-12-07T05:18:40;82.18;;;33.20;;
18520;SDS011;9390;51.244;6.982;2022-12-07T05:21:11;97.72;;;33.10;;
18520;SDS011;9390;51.244;6.982;2022-12-07T05:23:42;83.05;;;32.67;;
18520;SDS011;9390;51.244;6.982;2022-12-07T05:26:18;88.53;;;32.15;;
18520;SDS011;9390;51.244;6.982;2022-12-07T05:28:50;81.07;;;32.78;;
18520;SDS011;9390;51.244;6.982;2022-12-07T05:31:22;80.00;;;31.55;;
18520;SDS011;9390;51.244;6.982;2022-12-07T05:33:56;85.97;;;32.50;;
18520;SDS011;9390;51.244;6.982;2022-12-07T05:36:27;87.97;;;33.22;;
18520;SDS011;9390;51.244;6.982;2022-12-07T05:39:01;88.03;;;33.47;;
18520;SDS011;9390;51.244;6.982;2022-12-07T05:41:32;84.30;;;32.60;;
18520;SDS011;9390;51.244;6.982;2022-12-07T05:44:21;84.47;;;31.75;;
18520;SDS011;9390;51.244;6.982;2022-12-07T05:46:52;85.00;;;33.30;;
18520;SDS011;9390;51.244;6.982;2022-12-07T05:49:25;82.53;;;32.40;;
18520;SDS011;9390;51.244;6.982;2022-12-07T05:51:56;81.43;;;30.65;;
18520;SDS011;9390;51.244;6.982;2022-12-07T05:54:28;69.15;;;29.23;;
18520;SDS011;9390;51.244;6.982;2022-12-07T05:56:59;75.22;;;30.02;;
18520;SDS011;9390;51.244;6.982;2022-12-07T05:59:30;74.07;;;30.08;;
18520;SDS011;9390;51.244;6.982;2022-12-07T06:02:02;76.22;;;29.48;;
18520;SDS011;9390;51.244;6.982;2022-12-07T06:04:37;80.30;;;30.63;;
18520;SDS011;9390;51.244;6.982;2022-12-07T06:07:09;84.47;;;29.33;;
18520;SDS011;9390;51.244;6.982;2022-12-07T06:09:42;75.97;;;30.02;;
18520;SDS011;9390;51.244;6.982;2022-12-07T06:12:13;85.88;;;31.58;;
18520;SDS011;9390;51.244;6.982;2022-12-07T06:15:03;74.38;;;29.30;;
18520;SDS011;9390;51.244;6.982;2022-12-07T06:17:35;69.32;;;28.75;;
18520;SDS011;9390;51.244;6.982;2022-12-07T06:20:08;99.68;;;28.92;;
18520;SDS011;9390;51.244;6.982;2022-12-07T06:22:40;76.05;;;27.95;;
18520;SDS011;9390;51.244;6.982;2022-12-07T06:25:11;78.22;;;27.95;;
18520;SDS011;9390;51.244;6.982;2022-12-07T06:27:42;71.07;;;26.17;;
18520;SDS011;9390;51.244;6.982;2022-12-07T06:30:14;57.58;;;25.83;;
18520;SDS011;9390;51.244;6.982;2022-12-07T06:32:45;63.78;;;27.15;;
18520;SDS011;9390;51.244;6.982;2022-12-07T06:35:18;75.05;;;27.38;;
18520;SDS011;9390;51.244;6.982;2022-12-07T06:37:49;72.75;;;26.80;;
18520;SDS011;9390;51.244;6.982;2022-12-07T06:40:21;72.57;;;26.90;;
18520;SDS011;9390;51.244;6.982;2022-12-07T06:42:52;67.35;;;25.77;;
18520;SDS011;9390;51.244;6.982;2022-12-07T06:45:23;73.05;;;26.08;;
18520;SDS011;9390;51.244;6.982;2022-12-07T06:47:55;63.53;;;25.98;;
18520;SDS011;9390;51.244;6.982;2022-12-07T06:50:27;75.63;;;26.80;;
18520;SDS011;9390;51.244;6.982;2022-12-07T06:52:59;69.78;;;26.17;;
18520;SDS011;9390;51.244;6.982;2022-12-07T06:55:30;60.88;;;24.45;;
18520;SDS011;9390;51.244;6.982;2022-12-07T06:58:02;78.35;;;25.90;;
18520;SDS011;9390;51.244;6.982;2022-12-07T07:00:33;74.47;;;26.20;;
18520;SDS011;9390;51.244;6.982;2022-12-07T07:03:05;68.15;;;26.13;;
18520;SDS011;9390;51.244;6.982;2022-12-07T07:05:38;81.80;;;27.05;;
18520;SDS011;9390;51.244;6.982;2022-12-07T07:08:09;71.38;;;26.75;;
18520;SDS011;9390;51.244;6.982;2022-12-07T07:10:41;64.60;;;25.05;;
18520;SDS011;9390;51.244;6.982;2022-12-07T07:13:12;62.80;;;24.98;;
18520;SDS011;9390;51.244;6.982;2022-12-07T07:15:44;71.95;;;26.55;;
18520;SDS011;9390;51.244;6.982;2022-12-07T07:18:15;64.43;;;25.13;;
18520;SDS011;9390;51.244;6.982;2022-12-07T07:20:49;67.13;;;24.60;;
18520;SDS011;9390;51.244;6.982;2022-12-07T07:23:21;64.97;;;26.40;;
18520;SDS011;9390;51.244;6.982;2022-12-07T07:25:52;64.75;;;24.40;;
18520;SDS011;9390;51.244;6.982;2022-12-07T07:28:24;76.38;;;29.63;;
18520;SDS011;9390;51.244;6.982;2022-12-07T07:30:55;73.25;;;28.60;;
18520;SDS011;9390;51.244;6.982;2022-12-07T07:33:26;76.47;;;30.40;;
18520;SDS011;9390;51.244;6.982;2022-12-07T07:35:59;85.30;;;28.70;;
18520;SDS011;9390;51.244;6.982;2022-12-07T07:38:30;84.50;;;28.65;;
18520;SDS011;9390;51.244;6.982;2022-12-07T07:41:02;66.10;;;29.08;;
18520;SDS011;9390;51.244;6.982;2022-12-07T07:43:33;79.47;;;29.60;;
18520;SDS011;9390;51.244;6.982;2022-12-07T07:46:05;75.22;;;27.85;;
18520;SDS011;9390;51.244;6.982;2022-12-07T07:48:36;73.70;;;28.23;;
18520;SDS011;9390;51.244;6.982;2022-12-07T07:51:09;83.47;;;27.98;;
18520;SDS011;9390;51.244;6.982;2022-12-07T07:53:40;73.05;;;28.75;;
18520;SDS011;9390;51.244;6.982;2022-12-07T07:56:11;79.80;;;28.58;;
18520;SDS011;9390;51.244;6.982;2022-12-07T07:58:43;69.05;;;26.65;;
18520;SDS011;9390;51.244;6.982;2022-12-07T08:01:14;76.50;;;26.73;;
18520;SDS011;9390;51.244;6.982;2022-12-07T08:03:46;72.95;;;26.40;;
18520;SDS011;9390;51.244;6.982;2022-12-07T08:06:19;93.20;;;27.20;;
18520;SDS011;9390;51.244;6.982;2022-12-07T08:08:50;74.43;;;27.17;;
18520;SDS011;9390;51.244;6.982;2022-12-07T08:11:22;96.40;;;26.92;;
18520;SDS011;9390;51.244;6.982;2022-12-07T08:13:54;88.50;;;26.35;;
18520;SDS011;9390;51.244;6.982;2022-12-07T08:16:25;63.70;;;25.23;;
18520;SDS011;9390;51.244;6.982;2022-12-07T08:18:56;69.18;;;25.38;;
18520;SDS011;9390;51.244;6.982;2022-12-07T08:21:29;78.93;;;26.00;;
18520;SDS011;9390;51.244;6.982;2022-12-07T08:24:01;65.05;;;24.88;;
18520;SDS011;9390;51.244;6.982;2022-12-07T08:26:32;78.85;;;26.45;;
18520;SDS011;9390;51.244;6.982;2022-12-07T08:29:03;60.10;;;24.33;;
18520;SDS011;9390;51.244;6.982;2022-12-07T08:31:35;63.03;;;23.60;;
18520;SDS011;9390;51.244;6.982;2022-12-07T08:34:07;62.67;;;25.33;;
18520;SDS011;9390;51.244;6.982;2022-12-07T08:36:40;60.92;;;23.13;;
18520;SDS011;9390;51.244;6.982;2022-12-07T08:39:11;57.45;;;23.65;;
18520;SDS011;9390;51.244;6.982;2022-12-07T08:41:43;59.00;;;23.15;;
18520;SDS011;9390;51.244;6.982;2022-12-07T08:44:14;48.28;;;22.52;;
18520;SDS011;9390;51.244;6.982;2022-12-07T08:46:45;61.75;;;22.48;;
18520;SDS011;9390;51.244;6.982;2022-12-07T08:49:19;55.35;;;22.98;;
18520;SDS011;9390;51.244;6.982;2022-12-07T08:51:53;67.38;;;21.90;;
18520;SDS011;9390;51.244;6.982;2022-12-07T08:54:25;60.17;;;20.90;;
18520;SDS011;9390;51.244;6.982;2022-12-07T08:56:57;50.17;;;21.90;;
18520;SDS011;9390;51.244;6.982;2022-12-07T08:59:29;50.20;;;22.48;;
18520;SDS011;9390;51.244;6.982;2022-12-07T09:02:00;48.42;;;22.30;;
18520;SDS011;9390;51.244;6.982;2022-12-07T09:04:32;63.55;;;23.45;;
18520;SDS011;9390;51.244;6.982;2022-12-07T09:07:05;51.17;;;21.85;;
18520;SDS011;9390;51.244;6.982;2022-12-07T09:09:36;49.28;;;21.98;;
18520;SDS011;9390;51.244;6.982;2022-12-07T09:12:07;49.65;;;21.38;;
18520;SDS011;9390;51.244;6.982;2022-12-07T09:14:40;50.25;;;21.15;;
18520;SDS011;9390;51.244;6.982;2022-12-07T09:17:12;50.45;;;20.63;;
18520;SDS011;9390;51.244;6.982;2022-12-07T09:19:43;54.97;;;21.40;;
18520;SDS011;9390;51.244;6.982;2022-12-07T09:22:16;54.58;;;21.90;;
18520;SDS011;9390;51.244;6.982;2022-12-07T09:24:47;58.33;;;22.73;;
18520;SDS011;9390;51.244;6.982;2022-12-07T09:27:19;49.05;;;21.85;;
18520;SDS011;9390;51.244;6.982;2022-12-07T09:29:50;48.70;;;20.75;;
18520;SDS011;9390;51.244;6.982;2022-12-07T09:32:22;42.60;;;20.15;;
18520;SDS011;9390;51.244;6.982;2022-12-07T09:34:53;43.58;;;19.60;;
18520;SDS011;9390;51.244;6.982;2022-12-07T09:37:26;45.75;;;20.27;;
18520;SDS011;9390;51.244;6.982;2022-12-07T09:39:57;44.10;;;19.70;;
18520;SDS011;9390;51.244;6.982;2022-12-07T09:42:29;43.40;;;18.55;;
18520;SDS011;9390;51.244;6.982;2022-12-07T09:45:04;41.67;;;18.02;;
18520;SDS011;9390;51.244;6.982;2022-12-07T09:47:36;43.58;;;17.85;;
18520;SDS011;9390;51.244;6.982;2022-12-07T09:50:12;44.65;;;17.05;;
18520;SDS011;9390;51.244;6.982;2022-12-07T09:52:46;38.78;;;17.55;;
18520;SDS011;9390;51.244;6.982;2022-12-07T09:55:19;40.63;;;16.52;;
18520;SDS011;9390;51.244;6.982;2022-12-07T09:57:55;32.60;;;16.10;;
18520;SDS011;9390;51.244;6.982;2022-12-07T10:00:26;33.88;;;15.05;;
18520;SDS011;9390;51.244;6.982;2022-12-07T10:02:58;38.42;;;15.90;;
18520;SDS011;9390;51.244;6.982;2022-12-07T10:05:32;38.70;;;15.52;;
18520;SDS011;9390;51.244;6.982;2022-12-07T10:08:08;41.13;;;17.10;;
18520;SDS011;9390;51.244;6.982;2022-12-07T10:10:42;37.80;;;16.08;;
18520;SDS011;9390;51.244;6.982;2022-12-07T10:13:16;31.08;;;14.77;;
18520;SDS011;9390;51.244;6.982;2022-12-07T10:15:51;28.83;;;14.25;;
18520;SDS011;9390;51.244;6.982;2022-12-07T10:18:28;34.13;;;15.10;;
18520;SDS011;9390;51.244;6.982;2022-12-07T10:21:08;34.08;;;14.88;;
18520;SDS011;9390;51.244;6.982;2022-12-07T10:26:33;34.75;;;14.73;;
18520;SDS011;9390;51.244;6.982;2022-12-07T10:29:13;38.65;;;14.65;;
18520;SDS011;9390;51.244;6.982;2022-12-07T10:31:46;38.28;;;14.63;;
18520;SDS011;9390;51.244;6.982;2022-12-07T10:34:23;34.22;;;15.73;;
18520;SDS011;9390;51.244;6.982;2022-12-07T10:37:07;30.98;;;14.98;;
18520;SDS011;9390;51.244;6.982;2022-12-07T10:39:48;33.53;;;14.65;;
18520;SDS011;9390;51.244;6.982;2022-12-07T10:42:21;33.42;;;15.25;;
18520;SDS011;9390;51.244;6.982;2022-12-07T10:45:07;38.85;;;16.88;;
18520;SDS011;9390;51.244;6.982;2022-12-07T10:47:41;39.53;;;16.60;;
18520;SDS011;9390;51.244;6.982;2022-12-07T10:50:38;27.85;;;14.48;;
18520;SDS011;9390;51.244;6.982;2022-12-07T10:53:31;34.00;;;14.88;;
18520;SDS011;9390;51.244;6.982;2022-12-07T10:59:16;30.85;;;13.60;;
18520;SDS011;9390;51.244;6.982;2022-12-07T11:01:57;29.48;;;12.68;;
18520;SDS011;9390;51.244;6.982;2022-12-07T11:04:33;28.70;;;13.02;;
18520;SDS011;9390;51.244;6.982;2022-12-07T11:07:08;31.77;;;12.25;;
18520;SDS011;9390;51.244;6.982;2022-12-07T11:12:38;23.83;;;12.20;;
18520;SDS011;9390;51.244;6.982;2022-12-07T11:15:16;29.02;;;11.82;;
18520;SDS011;9390;51.244;6.982;2022-12-07T11:17:51;27.00;;;12.98;;
18520;SDS011;9390;51.244;6.982;2022-12-07T11:20:29;28.40;;;12.48;;
18520;SDS011;9390;51.244;6.982;2022-12-07T11:23:11;23.17;;;10.55;;
18520;SDS011;9390;51.244;6.982;2022-12-07T11:25:49;30.85;;;11.27;;
18520;SDS011;9390;51.244;6.982;2022-12-07T11:28:30;27.52;;;11.50;;
18520;SDS011;9390;51.244;6.982;2022-12-07T11:31:08;29.38;;;11.88;;
18520;SDS011;9390;51.244;6.982;2022-12-07T11:33:45;21.10;;;10.20;;
18520;SDS011;9390;51.244;6.982;2022-12-07T11:36:24;20.92;;;10.43;;
18520;SDS011;9390;51.244;6.982;2022-12-07T11:39:03;23.20;;;8.68;;
18520;SDS011;9390;51.244;6.982;2022-12-07T11:41:36;19.67;;;9.18;;
18520;SDS011;9390;51.244;6.982;2022-12-07T11:44:14;22.25;;;9.82;;
18520;SDS011;9390;51.244;6.982;2022-12-07T11:46:52;24.17;;;9.90;;
18520;SDS011;9390;51.244;6.982;2022-12-07T11:49:27;22.45;;;9.52;;
18520;SDS011;9390;51.244;6.982;2022-12-07T11:52:09;19.05;;;8.48;;
18520;SDS011;9390;51.244;6.982;2022-12-07T11:54:47;17.65;;;8.32;;
18520;SDS011;9390;51.244;6.982;2022-12-07T11:57:24;23.67;;;8.52;;
18520;SDS011;9390;51.244;6.982;2022-12-07T12:00:00;23.65;;;10.75;;
18520;SDS011;9390;51.244;6.982;2022-12-07T12:02:36;15.70;;;7.38;;
18520;SDS011;9390;51.244;6.982;2022-12-07T12:05:15;16.50;;;7.18;;
18520;SDS011;9390;51.244;6.982;2022-12-07T12:07:49;17.98;;;7.32;;
18520;SDS011;9390;51.244;6.982;2022-12-07T12:10:25;18.67;;;6.88;;
18520;SDS011;9390;51.244;6.982;2022-12-07T12:13:11;18.90;;;6.40;;
18520;SDS011;9390;51.244;6.982;2022-12-07T12:15:55;15.40;;;7.25;;
18520;SDS011;9390;51.244;6.982;2022-12-07T12:18:43;22.83;;;7.18;;
18520;SDS011;9390;51.244;6.982;2022-12-07T12:21:22;21.58;;;8.45;;
18520;SDS011;9390;51.244;6.982;2022-12-07T12:23:58;16.02;;;6.93;;
18520;SDS011;9390;51.244;6.982;2022-12-07T12:26:32;18.00;;;6.10;;
18520;SDS011;9390;51.244;6.982;2022-12-07T12:31:39;20.58;;;6.75;;
18520;SDS011;9390;51.244;6.982;2022-12-07T12:34:31;14.95;;;6.03;;
18520;SDS011;9390;51.244;6.982;2022-12-07T12:37:14;15.70;;;7.75;;
18520;SDS011;9390;51.244;6.982;2022-12-07T12:55:30;25.70;;;7.15;;
18520;SDS011;9390;51.244;6.982;2022-12-07T12:58:27;20.10;;;6.18;;
18520;SDS011;9390;51.244;6.982;2022-12-07T13:04:20;20.65;;;6.45;;
18520;SDS011;9390;51.244;6.982;2022-12-07T13:06:57;16.45;;;7.43;;
18520;SDS011;9390;51.244;6.982;2022-12-07T13:09:30;22.00;;;7.13;;
18520;SDS011;9390;51.244;6.982;2022-12-07T13:12:03;22.30;;;7.45;;
18520;SDS011;9390;51.244;6.982;2022-12-07T13:20:40;27.38;;;7.28;;
18520;SDS011;9390;51.244;6.982;2022-12-07T13:23:16;18.85;;;7.07;;
18520;SDS011;9390;51.244;6.982;2022-12-07T13:26:03;22.17;;;6.35;;
18520;SDS011;9390;51.244;6.982;2022-12-07T13:28:38;24.92;;;6.35;;
18520;SDS011;9390;51.244;6.982;2022-12-07T13:31:15;5.55;;;1.90;;
18520;SDS011;9390;51.244;6.982;2022-12-07T13:33:50;4.63;;;2.00;;
18520;SDS011;9390;51.244;6.982;2022-12-07T13:36:22;8.05;;;2.17;;
18520;SDS011;9390;51.244;6.982;2022-12-07T13:38:55;10.05;;;2.58;;
18520;SDS011;9390;51.244;6.982;2022-12-07T13:41:29;10.48;;;2.85;;
18520;SDS011;9390;51.244;6.982;2022-12-07T13:44:02;11.13;;;3.25;;
18520;SDS011;9390;51.244;6.982;2022-12-07T13:46:41;12.30;;;3.67;;
18520;SDS011;9390;51.244;6.982;2022-12-07T13:49:16;12.55;;;4.07;;
18520;SDS011;9390;51.244;6.982;2022-12-07T13:51:51;12.40;;;4.57;;
18520;SDS011;9390;51.244;6.982;2022-12-07T13:54:23;10.60;;;3.38;;
18520;SDS011;9390;51.244;6.982;2022-12-07T13:56:56;15.05;;;4.07;;
18520;SDS011;9390;51.244;6.982;2022-12-07T13:59:28;11.52;;;4.15;;
18520;SDS011;9390;51.244;6.982;2022-12-07T14:02:16;15.02;;;4.57;;
18520;SDS011;9390;51.244;6.982;2022-12-07T14:04:50;13.30;;;4.57;;
18520;SDS011;9390;51.244;6.982;2022-12-07T14:07:23;18.00;;;5.27;;
18520;SDS011;9390;51.244;6.982;2022-12-07T14:09:57;19.92;;;5.45;;
18520;SDS011;9390;51.244;6.982;2022-12-07T14:12:31;17.85;;;5.43;;
18520;SDS011;9390;51.244;6.982;2022-12-07T14:15:03;12.48;;;4.93;;
18520;SDS011;9390;51.244;6.982;2022-12-07T14:17:36;16.67;;;5.38;;
18520;SDS011;9390;51.244;6.982;2022-12-07T14:23:00;13.20;;;4.85;;
18520;SDS011;9390;51.244;6.982;2022-12-07T14:25:44;20.88;;;4.70;;
18520;SDS011;9390;51.244;6.982;2022-12-07T14:28:28;17.50;;;5.18;;
18520;SDS011;9390;51.244;6.982;2022-12-07T14:31:01;10.73;;;4.20;;
18520;SDS011;9390;51.244;6.982;2022-12-07T14:33:33;12.73;;;4.57;;
18520;SDS011;9390;51.244;6.982;2022-12-07T14:36:04;16.33;;;4.55;;
18520;SDS011;9390;51.244;6.982;2022-12-07T14:38:36;14.15;;;4.13;;
18520;SDS011;9390;51.244;6.982;2022-12-07T14:41:10;15.20;;;3.72;;
18520;SDS011;9390;51.244;6.982;2022-12-07T14:44:07;8.93;;;3.08;;
18520;SDS011;9390;51.244;6.982;2022-12-07T14:46:39;16.73;;;3.08;;
18520;SDS011;9390;51.244;6.982;2022-12-07T14:49:11;11.35;;;2.92;;
18520;SDS011;9390;51.244;6.982;2022-12-07T14:51:46;19.95;;;3.53;;
18520;SDS011;9390;51.244;6.982;2022-12-07T14:54:19;8.83;;;2.70;;
18520;SDS011;9390;51.244;6.982;2022-12-07T14:56:52;8.75;;;3.35;;
18520;SDS011;9390;51.244;6.982;2022-12-07T14:59:25;11.20;;;2.60;;
18520;SDS011;9390;51.244;6.982;2022-12-07T15:01:57;17.80;;;3.85;;
18520;SDS011;9390;51.244;6.982;2022-12-07T15:04:28;9.93;;;3.15;;
18520;SDS011;9390;51.244;6.982;2022-12-07T15:07:01;9.18;;;3.28;;
18520;SDS011;9390;51.244;6.982;2022-12-07T15:09:36;10.57;;;3.63;;
18520;SDS011;9390;51.244;6.982;2022-12-07T15:12:07;10.45;;;3.58;;
18520;SDS011;9390;51.244;6.982;2022-12-07T15:14:40;9.05;;;3.17;;
18520;SDS011;9390;51.244;6.982;2022-12-07T15:17:11;11.43;;;3.95;;
18520;SDS011;9390;51.244;6.982;2022-12-07T15:19:43;14.65;;;3.83;;
18520;SDS011;9390;51.244;6.982;2022-12-07T15:22:17;12.82;;;4.03;;
18520;SDS011;9390;51.244;6.982;2022-12-07T15:24:48;9.65;;;3.42;;
18520;SDS011;9390;51.244;6.982;2022-12-07T15:27:19;13.30;;;5.13;;
18520;SDS011;9390;51.244;6.982;2022-12-07T15:29:52;13.32;;;3.70;;
18520;SDS011;9390;51.244;6.982;2022-12-07T15:32:27;10.43;;;3.65;;
18520;SDS011;9390;51.244;6.982;2022-12-07T15:34:58;13.32;;;5.20;;
18520;SDS011;9390;51.244;6.982;2022-12-07T15:37:33;11.50;;;4.20;;
18520;SDS011;9390;51.244;6.982;2022-12-07T15:40:05;16.98;;;5.07;;
18520;SDS011;9390;51.244;6.982;2022-12-07T15:42:37;11.30;;;4.22;;
18520;SDS011;9390;51.244;6.982;2022-12-07T15:45:10;15.77;;;5.32;;
18520;SDS011;9390;51.244;6.982;2022-12-07T15:47:41;11.27;;;4.75;;
18520;SDS011;9390;51.244;6.982;2022-12-07T15:50:15;16.67;;;5.28;;
18520;SDS011;9390;51.244;6.982;2022-12-07T15:52:47;13.45;;;5.25;;
18520;SDS011;9390;51.244;6.982;2022-12-07T15:55:19;16.00;;;5.00;;
18520;SDS011;9390;51.244;6.982;2022-12-07T15:57:50;16.20;;;5.57;;
18520;SDS011;9390;51.244;6.982;2022-12-07T16:00:23;15.43;;;5.60;;
18520;SDS011;9390;51.244;6.982;2022-12-07T16:02:54;15.95;;;5.05;;
18520;SDS011;9390;51.244;6.982;2022-12-07T16:05:26;14.18;;;4.85;;
18520;SDS011;9390;51.244;6.982;2022-12-07T16:07:57;18.90;;;5.95;;